Time;durP1;ratioP1;P1;durP2;ratioP2;P2;SDS_P1;SDS_P2;PMS_P1;PMS_P2;Temp;Humidity;BMP_temperature;BMP_pressure;BME280_temperature;BME280_humidity;BME280_pressure;Samples;Min_cycle;Max_cycle;Signal;HPM_P1;HPM_P2
2021/11/23 18:59:31;;;;;;;4.80;4.40;;;0.80;99.90;;;;;;6258976;22;20449;-90
2021/11/23 19:02:24;;;;;;;6.83;5.17;;;0.90;99.90;;;;;;6260142;22;20401;-89
2021/11/23 19:05:14;;;;;;;8.03;5.00;;;0.90;99.90;;;;;;6260956;22;20506;-91
2021/11/23 19:08:10;;;;;;;5.93;4.80;;;1.00;99.90;;;;;;6285459;22;20423;-92
2021/11/23 19:10:49;;;;;;;4.50;4.00;;;1.00;99.90;;;;;;6262718;22;20412;-89
2021/11/23 19:13:14;;;;;;;4.80;4.30;;;0.90;99.90;;;;;;6261600;22;20411;-88
2021/11/23 19:15:40;;;;;;;5.00;4.17;;;0.80;99.90;;;;;;6262706;22;20920;-88
2021/11/23 19:18:14;;;;;;;4.87;4.37;;;0.80;99.90;;;;;;6291147;22;20214;-88
2021/11/23 19:20:40;;;;;;;4.83;4.33;;;0.70;99.90;;;;;;6261246;22;20166;-90
2021/11/23 19:23:29;;;;;;;;;;;;;;;;;;;;;
2021/11/23 19:26:15;;;;;;;5.00;4.50;;;0.80;99.90;;;;;;6288652;22;20861;-87
2021/11/23 21:35:35;;;;;;;6.70;6.00;;;-0.10;99.90;;;;;;6197210;22;20628;-88
2021/11/23 21:38:00;;;;;;;5.50;5.00;;;-0.10;99.90;;;;;;6173442;23;20403;-89
2021/11/23 21:40:31;;;;;;;6.67;5.97;;;-0.10;99.90;;;;;;6199472;23;20413;-88
2021/11/23 21:45:43;;;;;;;8.80;6.67;;;-0.30;99.90;;;;;;6201279;23;20400;-89
2021/11/23 21:48:15;;;;;;;9.87;8.20;;;-0.40;99.90;;;;;;6170939;23;20403;-89
2021/11/23 21:50:41;;;;;;;9.20;7.00;;;-0.50;99.90;;;;;;6174925;23;20700;-88
2021/11/23 21:53:12;;;;;;;7.77;7.07;;;-0.50;99.90;;;;;;6200659;23;20594;-88
2021/11/23 21:55:38;;;;;;;10.00;7.27;;;-0.40;99.90;;;;;;6150724;23;20454;-90
2021/11/23 21:58:17;;;;;;;11.37;8.17;;;-0.40;99.90;;;;;;6202087;23;20464;-89
2021/11/23 22:00:43;;;;;;;8.50;7.40;;;-0.40;99.90;;;;;;6199904;23;20438;-89
2021/11/23 22:03:24;;;;;;;8.30;7.07;;;-0.50;99.90;;;;;;6198211;23;20391;-92
2021/11/23 22:05:52;;;;;;;10.27;7.00;;;-0.60;99.90;;;;;;6199027;23;20402;-89
2021/11/23 22:08:26;;;;;;;8.70;6.63;;;-0.60;99.90;;;;;;6196802;23;20440;-89
2021/11/23 22:14:41;;;;;;;8.93;7.47;;;-0.60;99.90;;;;;;6181408;23;20402;-88
2021/11/23 22:17:07;;;;;;;9.63;7.27;;;-0.60;99.90;;;;;;6173663;23;20415;-89
2021/11/23 22:19:35;;;;;;;10.30;7.67;;;-0.60;99.90;;;;;;6199815;23;20723;-88
2021/11/23 22:22:10;;;;;;;8.90;7.67;;;-0.60;99.90;;;;;;6199434;23;20203;-88
2021/11/23 22:24:38;;;;;;;9.00;7.80;;;-0.60;99.90;;;;;;6200874;23;20440;-87
2021/11/23 22:27:04;;;;;;;8.40;6.70;;;-0.60;99.90;;;;;;6173729;23;20573;-87
2021/11/23 22:29:38;;;;;;;9.97;7.00;;;-0.70;99.90;;;;;;6199707;23;20911;-87
2021/11/23 22:32:07;;;;;;;10.17;7.90;;;-0.80;99.90;;;;;;6179511;23;20857;-88
2021/11/23 22:34:35;;;;;;;8.17;7.27;;;-0.80;99.90;;;;;;6174957;23;20426;-87
2021/11/23 22:37:09;;;;;;;10.60;7.73;;;-0.80;99.90;;;;;;6152711;23;20434;-87
2021/11/23 22:39:48;;;;;;;10.23;8.00;;;-0.80;99.90;;;;;;6205043;23;20910;-87
2021/11/23 22:42:14;;;;;;;14.17;8.20;;;-0.80;99.90;;;;;;6176197;23;20792;-87
2021/11/23 22:44:46;;;;;;;10.10;8.10;;;-0.80;99.90;;;;;;6202997;23;20418;-86
2021/11/23 22:47:15;;;;;;;10.57;8.30;;;-0.80;99.90;;;;;;6201271;23;20397;-90
2021/11/23 22:50:02;;;;;;;9.50;8.03;;;-0.70;99.90;;;;;;6202751;23;20386;-90
2021/11/23 22:53:03;;;;;;;11.27;8.83;;;-0.70;99.90;;;;;;6202533;23;20402;-90
2021/11/23 22:55:31;;;;;;;10.40;8.30;;;-0.70;99.90;;;;;;6191241;23;20454;-87
2021/11/23 22:58:03;;;;;;;11.87;8.03;;;-0.70;99.90;;;;;;6202135;23;20399;-88
2021/11/23 23:00:47;;;;;;;12.80;8.17;;;-0.80;99.90;;;;;;6202344;23;20402;-87
2021/11/23 23:03:15;;;;;;;9.30;8.30;;;-0.70;99.90;;;;;;6204107;23;20383;-89
2021/11/23 23:05:46;;;;;;;12.70;9.33;;;-0.60;99.90;;;;;;6176345;23;20478;-90
2021/11/23 23:08:15;;;;;;;11.73;7.83;;;-0.60;99.90;;;;;;6176363;23;20453;-90
2021/11/23 23:10:46;;;;;;;10.47;7.70;;;-0.60;99.90;;;;;;6201727;23;20405;-90
2021/11/23 23:13:32;;;;;;;11.17;9.73;;;-0.60;99.90;;;;;;6198600;23;20391;-88
2021/11/23 23:16:00;;;;;;;11.17;8.70;;;-0.60;99.90;;;;;;6176878;23;20446;-90
2021/11/23 23:18:32;;;;;;;10.80;8.57;;;-0.70;99.90;;;;;;6202768;23;20395;-87
2021/11/23 23:21:17;;;;;;;13.83;8.90;;;-0.80;99.90;;;;;;6203873;23;20892;-90
2021/11/23 23:23:51;;;;;;;10.57;8.70;;;-0.80;99.90;;;;;;6176559;23;20454;-90
2021/11/23 23:29:15;;;;;;;12.40;8.00;;;-1.00;99.90;;;;;;6204145;23;20406;-91
2021/11/23 23:31:52;;;;;;;13.40;9.30;;;-1.10;99.90;;;;;;6201085;23;20418;-88
2021/11/23 23:34:21;;;;;;;12.23;8.33;;;-1.00;99.90;;;;;;6176410;23;21319;-90
2021/11/23 23:36:49;;;;;;;10.53;8.37;;;-1.00;99.90;;;;;;6201958;23;20773;-91
2021/11/23 23:39:36;;;;;;;;;;;;;;;;;;;;;
2021/11/23 23:42:07;;;;;;;11.63;8.07;;;-1.00;99.90;;;;;;6205089;23;20478;-91
2021/11/23 23:44:37;;;;;;;10.07;8.57;;;-1.00;99.90;;;;;;6174674;23;20399;-89
2021/11/23 23:47:15;;;;;;;;;;;;;;;;;;;;;
2021/11/23 23:49:51;;;;;;;10.13;8.03;;;-1.00;99.90;;;;;;6202994;23;20865;-88
2021/11/23 23:52:18;;;;;;;10.00;8.57;;;-0.90;99.90;;;;;;6176274;23;20398;-90
2021/11/23 23:54:43;;;;;;;10.97;8.80;;;-1.00;99.90;;;;;;6202446;23;20489;-89
2021/11/23 23:57:09;;;;;;;11.83;8.13;;;-0.90;99.90;;;;;;6201728;23;20435;-90
